createdAt,value
2023-04-07T00:00:09.653Z,8.99
2023-04-07T00:01:09.674Z,9.02
2023-04-07T00:02:09.700Z,9.01
2023-04-07T00:03:09.855Z,8.92
2023-04-07T00:04:09.921Z,9.01
2023-04-07T00:05:09.756Z,8.99
2023-04-07T00:06:09.850Z,8.98
2023-04-07T00:07:09.807Z,8.96
2023-04-07T00:08:09.813Z,8.99
2023-04-07T00:09:09.838Z,8.95
2023-04-07T00:10:09.869Z,8.83
2023-04-07T00:11:09.875Z,8.91
2023-04-07T00:12:09.901Z,8.89
2023-04-07T00:13:09.911Z,8.76
2023-04-07T00:14:09.940Z,8.84
2023-04-07T00:15:09.963Z,8.83
2023-04-07T00:16:10.043Z,8.76
2023-04-07T00:17:10.010Z,8.77
2023-04-07T00:18:10.086Z,8.76
2023-04-07T00:19:10.047Z,8.81
2023-04-07T00:20:10.074Z,8.76
2023-04-07T00:21:10.087Z,8.81
2023-04-07T00:22:10.107Z,8.86
2023-04-07T00:23:10.129Z,8.74
2023-04-07T00:24:10.345Z,8.66
2023-04-07T00:25:10.171Z,8.71
2023-04-07T00:26:10.191Z,8.74
2023-04-07T00:27:10.212Z,8.66
2023-04-07T00:28:10.254Z,8.79
2023-04-07T00:29:10.267Z,8.70
2023-04-07T00:30:10.274Z,8.74
2023-04-07T00:31:10.323Z,8.71
2023-04-07T00:32:10.314Z,8.66
2023-04-07T00:33:10.352Z,8.71
2023-04-07T00:34:10.364Z,8.74
2023-04-07T00:35:10.383Z,8.70
2023-04-07T00:36:10.427Z,8.73
2023-04-07T00:37:10.424Z,8.62
2023-04-07T00:38:10.449Z,8.63
2023-04-07T00:39:10.459Z,8.71
2023-04-07T00:40:10.483Z,8.68
2023-04-07T00:41:10.497Z,8.71
2023-04-07T00:42:10.526Z,8.74
2023-04-07T00:43:10.549Z,8.83
2023-04-07T00:44:10.561Z,8.86
2023-04-07T00:45:10.599Z,8.77
2023-04-07T00:46:10.662Z,8.77
2023-04-07T00:47:10.630Z,8.74
2023-04-07T00:48:10.649Z,8.71
2023-04-07T00:49:11.373Z,8.86
2023-04-07T00:50:10.738Z,8.80
2023-04-07T00:51:10.714Z,8.77
2023-04-07T00:52:10.737Z,8.81
2023-04-07T00:53:10.752Z,8.70
2023-04-07T00:54:10.772Z,8.68
2023-04-07T00:55:10.800Z,8.74
2023-04-07T00:56:10.833Z,8.70
2023-04-07T00:57:10.836Z,8.66
2023-04-07T00:58:10.858Z,8.70
2023-04-07T00:59:10.878Z,8.71
2023-04-07T01:00:10.902Z,8.81
2023-04-07T01:01:10.929Z,8.83
2023-04-07T01:02:11.067Z,8.76
2023-04-07T01:03:11.268Z,8.71
2023-04-07T01:04:11.018Z,8.77
2023-04-07T01:05:11.060Z,8.83
2023-04-07T01:06:11.033Z,8.77
2023-04-07T01:07:11.064Z,8.74
2023-04-07T01:08:11.067Z,8.74
2023-04-07T01:09:11.083Z,8.74
2023-04-07T01:10:11.115Z,8.77
2023-04-07T01:11:11.125Z,8.86
2023-04-07T01:12:11.148Z,8.79
2023-04-07T01:13:11.171Z,8.76
2023-04-07T01:14:11.189Z,8.79
2023-04-07T01:15:11.215Z,8.76
2023-04-07T01:16:11.285Z,8.83
2023-04-07T01:17:11.260Z,8.76
2023-04-07T01:18:11.272Z,8.79
2023-04-07T01:19:11.293Z,8.83
2023-04-07T01:20:11.321Z,8.80
2023-04-07T01:21:11.342Z,8.71
2023-04-07T01:22:11.351Z,8.80
2023-04-07T01:23:11.379Z,8.65
2023-04-07T01:24:11.450Z,8.70
2023-04-07T01:25:11.431Z,8.66
2023-04-07T01:26:11.438Z,8.70
2023-04-07T01:27:11.471Z,8.86
2023-04-07T01:28:11.484Z,8.80
2023-04-07T01:29:11.499Z,8.70
2023-04-07T01:30:11.534Z,8.74
2023-04-07T01:31:11.539Z,8.77
2023-04-07T01:32:11.825Z,8.80
2023-04-07T01:33:11.582Z,8.65
2023-04-07T01:34:11.613Z,8.79
2023-04-07T01:35:11.625Z,8.76
2023-04-07T01:36:11.644Z,8.73
2023-04-07T01:37:11.685Z,8.73
2023-04-07T01:38:11.690Z,8.70
2023-04-07T01:39:11.712Z,8.68
2023-04-07T01:40:11.737Z,8.65
2023-04-07T01:41:11.752Z,8.68
2023-04-07T01:42:11.807Z,8.70
2023-04-07T01:43:11.799Z,8.71
2023-04-07T01:44:11.819Z,8.65
2023-04-07T01:45:11.851Z,8.71
2023-04-07T01:46:11.859Z,8.65
2023-04-07T01:47:11.920Z,8.65
2023-04-07T01:48:11.930Z,8.63
2023-04-07T01:49:11.923Z,8.55
2023-04-07T01:50:11.944Z,8.47
2023-04-07T01:51:11.987Z,8.56
2023-04-07T01:52:11.997Z,8.53
2023-04-07T01:53:12.005Z,8.52
2023-04-07T01:54:12.024Z,8.61
2023-04-07T01:55:12.050Z,8.61
2023-04-07T01:56:12.071Z,8.66
2023-04-07T01:57:12.091Z,8.59
2023-04-07T01:58:12.119Z,8.63
2023-04-07T01:59:12.132Z,8.65
2023-04-07T02:00:12.155Z,8.65
2023-04-07T02:01:12.187Z,8.68
2023-04-07T02:02:12.235Z,8.62
2023-04-07T02:03:12.367Z,8.63
2023-04-07T02:04:12.328Z,8.59
2023-04-07T02:05:12.254Z,8.56
2023-04-07T02:06:12.284Z,8.66
2023-04-07T02:07:12.298Z,8.56
2023-04-07T02:08:12.312Z,8.48
2023-04-07T02:09:12.336Z,8.63
2023-04-07T02:10:12.359Z,8.61
2023-04-07T02:11:12.393Z,8.55
2023-04-07T02:12:12.399Z,8.63
2023-04-07T02:13:12.425Z,8.65
2023-04-07T02:14:12.456Z,8.63
2023-04-07T02:15:12.467Z,8.61
2023-04-07T02:16:12.490Z,8.66
2023-04-07T02:17:12.503Z,8.66
2023-04-07T02:18:12.521Z,8.61
2023-04-07T02:19:12.539Z,8.66
2023-04-07T02:20:12.563Z,8.56
2023-04-07T02:21:12.597Z,8.55
2023-04-07T02:22:12.609Z,8.48
2023-04-07T02:23:12.629Z,8.58
2023-04-07T02:24:12.649Z,8.53
2023-04-07T02:25:12.663Z,8.53
2023-04-07T02:26:12.685Z,8.55
2023-04-07T02:27:12.706Z,8.58
2023-04-07T02:28:12.738Z,8.62
2023-04-07T02:29:12.748Z,8.59
2023-04-07T02:30:12.769Z,8.52
2023-04-07T02:31:12.871Z,8.59
2023-04-07T02:32:12.811Z,8.61
2023-04-07T02:33:12.830Z,8.71
2023-04-07T02:34:12.854Z,8.68
2023-04-07T02:35:12.871Z,8.70
2023-04-07T02:36:12.890Z,8.65
2023-04-07T02:37:12.944Z,8.70
2023-04-07T02:38:12.935Z,8.61
2023-04-07T02:39:12.956Z,8.63
2023-04-07T02:40:12.982Z,8.62
2023-04-07T02:41:12.999Z,8.71
2023-04-07T02:42:13.040Z,8.66
2023-04-07T02:43:13.037Z,8.63
2023-04-07T02:44:13.059Z,8.65
2023-04-07T02:45:13.088Z,8.68
2023-04-07T02:46:15.414Z,8.71
2023-04-07T02:47:13.120Z,8.66
2023-04-07T02:48:13.142Z,8.62
2023-04-07T02:49:13.161Z,8.66
2023-04-07T02:50:13.184Z,8.56
2023-04-07T02:51:13.211Z,8.58
2023-04-07T02:52:13.220Z,8.68
2023-04-07T02:53:13.253Z,8.62
2023-04-07T02:54:13.258Z,8.56
2023-04-07T02:55:13.289Z,8.65
2023-04-07T02:56:13.313Z,8.61
2023-04-07T02:57:13.324Z,8.52
2023-04-07T02:58:13.880Z,8.52
2023-04-07T02:59:13.364Z,8.55
2023-04-07T03:00:13.394Z,8.47
2023-04-07T03:01:13.438Z,8.59
2023-04-07T03:02:13.560Z,8.53
2023-04-07T03:03:13.516Z,8.59
2023-04-07T03:04:13.679Z,8.68
2023-04-07T03:05:13.495Z,8.66
2023-04-07T03:06:13.506Z,8.62
2023-04-07T03:07:13.551Z,8.66
2023-04-07T03:08:13.560Z,8.61
2023-04-07T03:09:13.574Z,8.56
2023-04-07T03:10:13.595Z,8.63
2023-04-07T03:11:13.612Z,8.56
2023-04-07T03:12:13.640Z,8.48
2023-04-07T03:13:13.667Z,8.52
2023-04-07T03:14:13.675Z,8.53
2023-04-07T03:15:13.697Z,8.65
2023-04-07T03:16:13.718Z,8.62
2023-04-07T03:17:13.735Z,8.65
2023-04-07T03:18:13.754Z,8.48
2023-04-07T03:19:13.777Z,8.65
2023-04-07T03:20:13.799Z,8.56
2023-04-07T03:21:13.821Z,8.55
2023-04-07T03:22:13.850Z,8.45
2023-04-07T03:23:13.862Z,8.53
2023-04-07T03:24:13.883Z,8.53
2023-04-07T03:25:13.906Z,8.62
2023-04-07T03:26:13.967Z,8.48
2023-04-07T03:27:13.943Z,8.47
2023-04-07T03:28:13.963Z,8.48
2023-04-07T03:29:13.984Z,8.47
2023-04-07T03:30:14.013Z,8.45
2023-04-07T03:31:14.047Z,8.53
2023-04-07T03:32:14.049Z,8.53
2023-04-07T03:33:14.070Z,8.53
2023-04-07T03:34:14.090Z,8.48
2023-04-07T03:35:14.110Z,8.43
2023-04-07T03:36:14.139Z,8.41
2023-04-07T03:37:14.150Z,8.34
2023-04-07T03:38:14.170Z,8.47
2023-04-07T03:39:14.193Z,8.48
2023-04-07T03:40:14.209Z,8.44
2023-04-07T03:41:14.234Z,8.45
2023-04-07T03:42:14.251Z,8.47
2023-04-07T03:43:14.311Z,8.55
2023-04-07T03:44:14.294Z,8.62
2023-04-07T03:45:14.320Z,8.55
2023-04-07T03:46:14.378Z,8.53
2023-04-07T03:47:14.363Z,8.52
2023-04-07T03:48:14.384Z,8.50
2023-04-07T03:49:14.400Z,8.50
2023-04-07T03:50:14.426Z,8.47
2023-04-07T03:51:14.437Z,8.52
2023-04-07T03:52:14.461Z,8.48
2023-04-07T03:53:14.481Z,8.53
2023-04-07T03:54:14.501Z,8.48
2023-04-07T03:55:14.520Z,8.50
2023-04-07T03:56:14.552Z,8.41
2023-04-07T03:57:14.563Z,8.30
2023-04-07T03:58:14.584Z,8.36
2023-04-07T03:59:14.607Z,8.37
2023-04-07T04:00:14.624Z,8.30
2023-04-07T04:01:14.651Z,8.33
2023-04-07T04:02:14.769Z,8.33
2023-04-07T04:03:14.745Z,8.34
2023-04-07T04:04:14.841Z,8.34
2023-04-07T04:05:14.726Z,8.43
2023-04-07T04:06:14.756Z,8.43
2023-04-07T04:07:14.771Z,8.40
2023-04-07T04:08:14.803Z,8.40
2023-04-07T04:09:14.824Z,8.38
2023-04-07T04:10:14.834Z,8.41
2023-04-07T04:11:14.850Z,8.41
2023-04-07T04:12:14.877Z,8.40
2023-04-07T04:13:14.904Z,8.37
2023-04-07T04:14:14.910Z,8.36
2023-04-07T04:15:14.948Z,8.36
2023-04-07T04:16:15.371Z,8.33
2023-04-07T04:17:14.977Z,8.33
2023-04-07T04:18:14.995Z,8.30
2023-04-07T04:19:15.015Z,8.33
2023-04-07T04:20:15.039Z,8.34
2023-04-07T04:21:15.069Z,8.36
2023-04-07T04:22:15.076Z,8.34
2023-04-07T04:23:15.098Z,8.40
2023-04-07T04:24:15.125Z,8.33
2023-04-07T04:25:15.138Z,8.44
2023-04-07T04:26:15.158Z,8.43
2023-04-07T04:27:15.181Z,8.41
2023-04-07T04:28:15.213Z,8.47
2023-04-07T04:29:15.217Z,8.40
2023-04-07T04:30:15.241Z,8.34
2023-04-07T04:31:15.301Z,8.37
2023-04-07T04:32:15.283Z,8.33
2023-04-07T04:33:15.304Z,8.38
2023-04-07T04:34:15.326Z,8.34
2023-04-07T04:35:15.357Z,8.36
2023-04-07T04:36:15.364Z,8.47
2023-04-07T04:37:15.385Z,8.41
2023-04-07T04:38:15.406Z,8.50
2023-04-07T04:39:15.428Z,8.44
2023-04-07T04:40:15.458Z,8.55
2023-04-07T04:41:15.467Z,8.47
2023-04-07T04:42:15.487Z,8.50
2023-04-07T04:43:15.509Z,8.48
2023-04-07T04:44:15.534Z,8.48
2023-04-07T04:45:15.563Z,8.45
2023-04-07T04:46:15.570Z,8.50
2023-04-07T04:47:15.662Z,8.45
2023-04-07T04:48:15.617Z,8.45
2023-04-07T04:49:15.635Z,8.55
2023-04-07T04:50:15.660Z,8.45
2023-04-07T04:51:22.846Z,8.45
2023-04-07T04:53:20.183Z,8.48
2023-04-07T04:54:19.695Z,8.45
2023-04-07T04:55:19.731Z,8.44
2023-04-07T04:56:19.734Z,8.50
2023-04-07T04:57:19.754Z,8.52
2023-04-07T04:58:19.778Z,8.48
2023-04-07T04:59:19.795Z,8.58
2023-04-07T05:00:19.817Z,8.48
2023-04-07T05:01:19.896Z,8.45
2023-04-07T05:02:19.878Z,8.52
2023-04-07T05:03:20.013Z,8.52
2023-04-07T05:04:20.044Z,8.53
2023-04-07T05:05:20.046Z,8.55
2023-04-07T05:06:19.940Z,8.48
2023-04-07T05:07:19.961Z,8.55
2023-04-07T05:08:19.989Z,8.55
2023-04-07T05:09:20.007Z,8.55
2023-04-07T05:10:20.025Z,8.52
2023-04-07T05:11:20.040Z,8.55
2023-04-07T05:12:20.065Z,8.58
2023-04-07T05:13:20.086Z,8.58
2023-04-07T05:14:20.119Z,8.59
2023-04-07T05:15:20.124Z,8.59
2023-04-07T05:16:20.202Z,8.63
2023-04-07T05:17:20.241Z,8.59
2023-04-07T05:18:20.184Z,8.66
2023-04-07T05:19:20.205Z,8.65
2023-04-07T05:20:20.226Z,8.66
2023-04-07T05:21:20.245Z,8.66
2023-04-07T05:22:20.271Z,8.66
2023-04-07T05:23:20.286Z,8.61
2023-04-07T05:24:20.309Z,8.53
2023-04-07T05:25:20.341Z,8.53
2023-04-07T05:26:20.348Z,8.59
2023-04-07T05:27:20.372Z,8.55
2023-04-07T05:28:20.392Z,8.68
2023-04-07T05:29:20.409Z,8.62
2023-04-07T05:30:20.442Z,8.63
2023-04-07T05:31:20.501Z,8.52
2023-04-07T05:32:20.483Z,8.58
2023-04-07T05:33:20.493Z,8.63
2023-04-07T05:34:20.514Z,8.53
2023-04-07T05:35:20.535Z,8.50
2023-04-07T05:36:20.582Z,8.59
2023-04-07T05:37:20.576Z,8.53
2023-04-07T05:38:20.621Z,8.55
2023-04-07T05:39:20.622Z,8.62
2023-04-07T05:40:20.665Z,8.71
2023-04-07T05:41:20.659Z,8.74
2023-04-07T05:42:20.679Z,8.70
2023-04-07T05:43:20.702Z,8.71
2023-04-07T05:44:20.725Z,8.73
2023-04-07T05:45:20.790Z,8.74
2023-04-07T05:46:20.796Z,8.68
2023-04-07T05:47:20.833Z,8.63
2023-04-07T05:48:20.806Z,8.70
2023-04-07T05:49:20.942Z,8.65
2023-04-07T05:50:20.859Z,8.63
2023-04-07T05:51:20.870Z,8.71
2023-04-07T05:52:20.882Z,8.63
2023-04-07T05:53:20.910Z,8.50
2023-04-07T05:54:20.936Z,8.68
2023-04-07T05:55:20.954Z,8.65
2023-04-07T05:56:20.968Z,8.62
2023-04-07T05:57:20.991Z,8.63
2023-04-07T05:58:21.115Z,8.68
2023-04-07T05:59:21.095Z,8.63
2023-04-07T06:00:21.128Z,8.65
2023-04-07T06:01:21.130Z,8.70
2023-04-07T06:02:21.239Z,8.71
2023-04-07T06:03:21.335Z,8.70
2023-04-07T06:04:21.172Z,8.73
2023-04-07T06:05:21.279Z,8.79
2023-04-07T06:06:21.189Z,8.62
2023-04-07T06:07:21.197Z,8.70
2023-04-07T06:08:21.222Z,8.73
2023-04-07T06:09:21.244Z,8.73
2023-04-07T06:10:21.262Z,8.66
2023-04-07T06:11:21.308Z,8.76
2023-04-07T06:12:21.303Z,8.66
2023-04-07T06:13:21.325Z,8.66
2023-04-07T06:14:21.389Z,8.74
2023-04-07T06:15:21.378Z,8.76
2023-04-07T06:16:21.452Z,8.73
2023-04-07T06:17:21.440Z,8.81
2023-04-07T06:18:21.429Z,8.91
2023-04-07T06:19:21.446Z,8.89
2023-04-07T06:20:21.483Z,8.91
2023-04-07T06:21:21.490Z,8.80
2023-04-07T06:22:21.514Z,8.87
2023-04-07T06:23:21.534Z,8.95
2023-04-07T06:24:21.554Z,8.95
2023-04-07T06:25:21.575Z,8.96
2023-04-07T06:26:21.600Z,9.02
2023-04-07T06:27:21.617Z,9.08
2023-04-07T06:28:21.643Z,9.14
2023-04-07T06:29:21.657Z,9.05
2023-04-07T06:30:21.682Z,9.02
2023-04-07T06:31:21.765Z,9.10
2023-04-07T06:32:21.734Z,9.04
2023-04-07T06:33:21.751Z,9.17
2023-04-07T06:34:21.761Z,9.17
2023-04-07T06:35:21.807Z,9.14
2023-04-07T06:36:21.897Z,9.17
2023-04-07T06:37:21.823Z,9.24
2023-04-07T06:38:21.848Z,9.17
2023-04-07T06:39:21.869Z,9.11
2023-04-07T06:40:21.897Z,9.14
2023-04-07T06:41:21.914Z,9.17
2023-04-07T06:42:21.934Z,9.23
2023-04-07T06:43:21.954Z,9.29
2023-04-07T06:44:21.974Z,9.21
2023-04-07T06:45:21.993Z,9.26
2023-04-07T06:46:22.087Z,9.14
2023-04-07T06:47:22.037Z,9.15
2023-04-07T06:48:22.058Z,9.18
2023-04-07T06:49:22.089Z,9.20
2023-04-07T06:50:22.106Z,9.20
2023-04-07T06:51:22.180Z,9.23
2023-04-07T06:52:22.144Z,9.14
2023-04-07T06:53:22.166Z,9.15
2023-04-07T06:54:22.186Z,9.14
2023-04-07T06:55:22.219Z,9.17
2023-04-07T06:56:22.226Z,9.15
2023-04-07T06:57:22.261Z,9.02
2023-04-07T06:58:22.275Z,9.02
2023-04-07T06:59:22.291Z,9.10
2023-04-07T07:00:22.313Z,9.05
2023-04-07T07:01:22.352Z,9.17
2023-04-07T07:02:22.520Z,9.17
2023-04-07T07:03:22.459Z,9.13
2023-04-07T07:04:22.514Z,9.14
2023-04-07T07:05:22.422Z,9.13
2023-04-07T07:06:22.440Z,9.15
2023-04-07T07:07:22.462Z,9.14
2023-04-07T07:08:22.482Z,9.17
2023-04-07T07:09:22.505Z,9.20
2023-04-07T07:10:22.533Z,9.23
2023-04-07T07:11:22.549Z,9.23
2023-04-07T07:12:22.565Z,9.21
2023-04-07T07:13:22.586Z,9.20
2023-04-07T07:14:22.614Z,9.17
2023-04-07T07:15:22.638Z,9.23
2023-04-07T07:16:22.650Z,9.28
2023-04-07T07:17:22.733Z,9.21
2023-04-07T07:18:22.707Z,9.35
2023-04-07T07:19:22.714Z,9.31
2023-04-07T07:20:22.735Z,9.33
2023-04-07T07:21:22.767Z,9.40
2023-04-07T07:22:22.783Z,9.40
2023-04-07T07:23:22.805Z,9.38
2023-04-07T07:24:22.823Z,9.39
2023-04-07T07:25:22.840Z,9.43
2023-04-07T07:26:22.865Z,9.38
2023-04-07T07:27:22.910Z,9.40
2023-04-07T07:28:22.908Z,9.39
2023-04-07T07:29:22.937Z,9.40
2023-04-07T07:30:22.948Z,9.47
2023-04-07T07:31:23.050Z,9.40
2023-04-07T07:32:23.030Z,9.43
2023-04-07T07:33:23.043Z,9.42
2023-04-07T07:34:23.034Z,9.42
2023-04-07T07:35:23.080Z,9.46
2023-04-07T07:36:23.108Z,9.53
2023-04-07T07:37:23.198Z,9.50
2023-04-07T07:38:23.132Z,9.64
2023-04-07T07:39:23.156Z,9.64
2023-04-07T07:40:23.162Z,9.64
2023-04-07T07:41:23.183Z,9.72
2023-04-07T07:42:23.207Z,9.72
2023-04-07T07:43:23.226Z,9.66
2023-04-07T07:44:23.246Z,9.79
2023-04-07T07:45:23.275Z,9.74
2023-04-07T07:46:23.344Z,9.75
2023-04-07T07:47:23.432Z,9.81
2023-04-07T07:48:23.339Z,9.71
2023-04-07T07:49:23.356Z,9.75
2023-04-07T07:50:23.379Z,9.79
2023-04-07T07:51:23.481Z,9.81
2023-04-07T07:52:23.422Z,9.78
2023-04-07T07:53:23.444Z,9.84
2023-04-07T07:54:23.462Z,9.89
2023-04-07T07:55:23.487Z,9.97
2023-04-07T07:56:23.510Z,10.14
2023-04-07T07:57:23.531Z,10.11
2023-04-07T07:58:23.564Z,10.07
2023-04-07T07:59:23.572Z,10.15
2023-04-07T08:00:23.599Z,10.25
2023-04-07T08:01:23.616Z,10.20
2023-04-07T08:02:23.708Z,10.26
2023-04-07T08:03:23.828Z,10.20
2023-04-07T08:04:23.749Z,10.23
2023-04-07T08:05:23.705Z,10.17
2023-04-07T08:06:23.727Z,10.22
2023-04-07T08:07:23.749Z,10.29
2023-04-07T08:08:23.771Z,10.30
2023-04-07T08:09:23.795Z,10.40
2023-04-07T08:10:23.823Z,10.40
2023-04-07T08:11:23.839Z,10.33
2023-04-07T08:12:23.860Z,10.30
2023-04-07T08:13:23.881Z,10.29
2023-04-07T08:14:23.906Z,10.40
2023-04-07T08:15:23.935Z,10.48
2023-04-07T08:16:24.068Z,10.55
2023-04-07T08:17:24.015Z,10.53
2023-04-07T08:18:23.999Z,10.45
2023-04-07T08:19:24.022Z,10.59
2023-04-07T08:20:24.128Z,10.48
2023-04-07T08:21:24.063Z,10.47
2023-04-07T08:22:24.086Z,10.56
2023-04-07T08:23:24.107Z,10.59
2023-04-07T08:24:24.125Z,10.59
2023-04-07T08:25:24.150Z,10.55
2023-04-07T08:26:24.173Z,10.53
2023-04-07T08:27:24.202Z,10.55
2023-04-07T08:28:24.216Z,10.61
2023-04-07T08:29:24.236Z,10.63
2023-04-07T08:30:24.276Z,10.82
2023-04-07T08:31:24.307Z,10.76
2023-04-07T08:32:24.309Z,10.79
2023-04-07T08:33:24.328Z,10.78
2023-04-07T08:34:24.359Z,10.78
2023-04-07T08:35:24.404Z,10.82
2023-04-07T08:36:24.466Z,10.84
2023-04-07T08:37:24.420Z,10.94
2023-04-07T08:38:24.445Z,10.88
2023-04-07T08:39:24.465Z,10.86
2023-04-07T08:40:24.526Z,10.91
2023-04-07T08:41:24.510Z,10.92
2023-04-07T08:42:24.559Z,10.92
2023-04-07T08:43:24.555Z,10.99
2023-04-07T08:44:24.598Z,11.17
2023-04-07T08:45:24.603Z,11.24
2023-04-07T08:46:24.652Z,11.11
2023-04-07T08:47:24.688Z,11.29
2023-04-07T08:48:24.670Z,11.42
2023-04-07T08:49:24.699Z,11.43
2023-04-07T08:50:24.712Z,11.47
2023-04-07T08:51:24.740Z,11.46
2023-04-07T08:52:24.761Z,11.54
2023-04-07T08:53:24.784Z,11.61
2023-04-07T08:54:24.810Z,11.55
2023-04-07T08:55:24.831Z,11.51
2023-04-07T08:56:24.883Z,11.43
2023-04-07T08:57:24.887Z,11.49
2023-04-07T08:58:24.905Z,11.46
2023-04-07T08:59:24.952Z,11.52
2023-04-07T09:00:24.960Z,11.52
2023-04-07T09:01:25.002Z,11.61
2023-04-07T09:02:25.073Z,11.70
2023-04-07T09:03:25.066Z,11.73
2023-04-07T09:04:25.043Z,11.75
2023-04-07T09:05:25.083Z,11.78
2023-04-07T09:06:25.084Z,11.72
2023-04-07T09:07:25.108Z,11.65
2023-04-07T09:08:25.132Z,11.67
2023-04-07T09:09:25.160Z,11.75
2023-04-07T09:10:25.173Z,11.73
2023-04-07T09:11:25.204Z,11.72
2023-04-07T09:12:25.226Z,11.75
2023-04-07T09:13:25.249Z,11.85
2023-04-07T09:14:25.281Z,11.86
2023-04-07T09:15:25.301Z,11.98
2023-04-07T09:16:25.346Z,12.04
2023-04-07T09:17:25.378Z,12.05
2023-04-07T09:18:25.365Z,12.05
2023-04-07T09:19:25.390Z,12.13
2023-04-07T09:20:25.415Z,12.14
2023-04-07T09:21:25.447Z,12.20
2023-04-07T09:22:25.460Z,12.23
2023-04-07T09:23:25.489Z,12.21
2023-04-07T09:24:25.519Z,12.24
2023-04-07T09:25:25.529Z,12.31
2023-04-07T09:26:25.564Z,12.34
2023-04-07T09:27:25.582Z,12.28
2023-04-07T09:28:25.608Z,12.46
2023-04-07T09:29:25.626Z,12.39
2023-04-07T09:30:25.646Z,12.52
2023-04-07T09:31:25.715Z,12.41
2023-04-07T09:32:25.748Z,12.52
2023-04-07T09:33:25.717Z,12.32
2023-04-07T09:34:25.750Z,12.19
2023-04-07T09:35:25.775Z,12.13
2023-04-07T09:36:25.790Z,12.12
2023-04-07T09:37:25.813Z,12.05
2023-04-07T09:38:25.844Z,12.14
2023-04-07T09:39:25.873Z,12.16
2023-04-07T09:40:25.884Z,12.20
2023-04-07T09:41:25.939Z,12.14
2023-04-07T09:42:25.936Z,12.04
2023-04-07T09:43:25.953Z,12.01
2023-04-07T09:44:25.977Z,11.95
2023-04-07T09:45:33.946Z,11.99
2023-04-07T09:46:26.336Z,11.91
2023-04-07T09:47:26.068Z,11.95
2023-04-07T09:48:26.070Z,11.95
2023-04-07T09:49:26.093Z,11.88
2023-04-07T09:50:26.115Z,11.82
2023-04-07T09:51:26.140Z,11.88
2023-04-07T09:52:26.163Z,11.85
2023-04-07T09:53:26.185Z,11.90
2023-04-07T09:54:26.210Z,11.82
2023-04-07T09:55:26.232Z,11.73
2023-04-07T09:56:26.259Z,11.75
2023-04-07T09:57:26.280Z,11.64
2023-04-07T09:58:26.306Z,11.64
2023-04-07T09:59:26.326Z,11.67
2023-04-07T10:00:26.358Z,11.58
2023-04-07T10:01:26.392Z,11.60
2023-04-07T10:02:26.457Z,11.49
2023-04-07T10:03:26.448Z,11.51
2023-04-07T10:04:26.490Z,11.46
2023-04-07T10:05:26.470Z,11.43
2023-04-07T10:06:26.486Z,11.49
2023-04-07T10:07:26.513Z,11.55
2023-04-07T10:08:26.556Z,11.54
2023-04-07T10:09:26.564Z,11.62
2023-04-07T10:10:26.603Z,11.70
2023-04-07T10:11:26.602Z,11.75
2023-04-07T10:12:26.631Z,11.76
2023-04-07T10:13:26.651Z,11.73
2023-04-07T10:14:26.676Z,11.76
2023-04-07T10:15:26.744Z,11.73
2023-04-07T10:16:26.817Z,11.79
2023-04-07T10:17:26.779Z,11.73
2023-04-07T10:18:26.769Z,11.73
2023-04-07T10:19:26.791Z,11.73
2023-04-07T10:20:26.821Z,11.70
2023-04-07T10:21:26.836Z,11.65
2023-04-07T10:22:26.858Z,11.76
2023-04-07T10:23:26.886Z,11.72
2023-04-07T10:24:26.909Z,11.70
2023-04-07T10:25:26.944Z,11.73
2023-04-07T10:26:26.954Z,11.82
2023-04-07T10:27:26.977Z,11.88
2023-04-07T10:28:26.996Z,12.09
2023-04-07T10:29:27.030Z,12.14
2023-04-07T10:30:27.061Z,12.14
2023-04-07T10:31:27.114Z,12.20
2023-04-07T10:32:27.238Z,12.16
2023-04-07T10:33:27.114Z,12.20
2023-04-07T10:34:27.140Z,12.27
2023-04-07T10:35:27.180Z,12.19
2023-04-07T10:36:27.185Z,12.24
2023-04-07T10:37:27.208Z,12.32
2023-04-07T10:38:27.233Z,12.31
2023-04-07T10:39:27.256Z,12.24
2023-04-07T10:40:27.281Z,12.27
2023-04-07T10:41:27.310Z,12.29
2023-04-07T10:42:27.330Z,12.35
2023-04-07T10:43:27.353Z,12.32
2023-04-07T10:44:27.368Z,12.27
2023-04-07T10:45:27.397Z,12.17
2023-04-07T10:46:27.432Z,12.09
2023-04-07T10:47:27.479Z,12.13
2023-04-07T10:48:27.472Z,12.12
2023-04-07T10:49:27.488Z,12.07
2023-04-07T10:50:27.513Z,12.01
2023-04-07T10:51:27.533Z,11.88
2023-04-07T10:52:27.567Z,11.99
2023-04-07T10:53:27.576Z,11.83
2023-04-07T10:54:29.321Z,11.85
2023-04-07T10:55:27.638Z,11.88
2023-04-07T10:56:27.653Z,11.88
2023-04-07T10:57:27.677Z,11.88
2023-04-07T10:58:27.700Z,11.96
2023-04-07T10:59:28.066Z,11.98
2023-04-07T11:00:27.746Z,12.01
2023-04-07T11:01:27.832Z,11.96
2023-04-07T11:02:27.939Z,12.04
2023-04-07T11:03:27.891Z,11.99
2023-04-07T11:04:27.985Z,11.98
2023-04-07T11:05:27.861Z,11.99
2023-04-07T11:06:27.886Z,12.13
2023-04-07T11:07:27.913Z,12.14
2023-04-07T11:08:27.931Z,12.19
2023-04-07T11:09:27.959Z,12.12
2023-04-07T11:10:27.978Z,12.24
2023-04-07T11:11:27.996Z,12.32
2023-04-07T11:12:28.023Z,12.29
2023-04-07T11:13:28.046Z,12.45
2023-04-07T11:14:28.092Z,12.49
2023-04-07T11:15:28.100Z,12.60
2023-04-07T11:16:28.181Z,12.62
2023-04-07T11:17:28.175Z,12.60
2023-04-07T11:18:28.167Z,12.62
2023-04-07T11:19:28.187Z,12.75
2023-04-07T11:20:28.211Z,12.77
2023-04-07T11:21:28.237Z,12.68
2023-04-07T11:22:30.412Z,12.72
2023-04-07T11:23:28.286Z,12.82
2023-04-07T11:24:28.307Z,12.77
2023-04-07T11:25:28.331Z,12.78
2023-04-07T11:26:28.356Z,12.79
2023-04-07T11:27:28.386Z,12.86
2023-04-07T11:28:28.406Z,12.92
2023-04-07T11:29:28.430Z,13.03
2023-04-07T11:30:28.459Z,13.03
2023-04-07T11:31:28.548Z,13.05
2023-04-07T11:32:28.552Z,13.01
2023-04-07T11:33:28.525Z,13.03
2023-04-07T11:34:28.544Z,13.15
2023-04-07T11:35:28.576Z,13.14
2023-04-07T11:36:28.596Z,13.12
2023-04-07T11:37:28.618Z,13.11
2023-04-07T11:38:28.646Z,13.04
2023-04-07T11:39:28.667Z,13.03
2023-04-07T11:40:28.694Z,13.03
2023-04-07T11:41:28.732Z,13.00
2023-04-07T11:42:28.742Z,13.05
2023-04-07T11:43:28.770Z,13.04
2023-04-07T11:44:28.792Z,13.12
2023-04-07T11:45:28.811Z,13.14
2023-04-07T11:46:28.866Z,13.20
2023-04-07T11:47:28.877Z,13.26
2023-04-07T11:48:28.889Z,13.20
2023-04-07T11:49:29.188Z,13.23
2023-04-07T11:50:28.938Z,13.33
2023-04-07T11:51:28.956Z,13.29
2023-04-07T11:52:28.986Z,13.29
2023-04-07T11:53:29.025Z,13.38
2023-04-07T11:54:29.041Z,13.26
2023-04-07T11:55:29.058Z,13.22
2023-04-07T11:56:29.083Z,13.29
2023-04-07T11:57:29.110Z,13.29
2023-04-07T11:58:29.137Z,13.33
2023-04-07T11:59:29.159Z,13.46
2023-04-07T12:00:29.179Z,13.49
2023-04-07T12:01:29.248Z,13.52
2023-04-07T12:02:29.368Z,13.59
2023-04-07T12:03:29.295Z,13.57
2023-04-07T12:04:29.416Z,13.63
2023-04-07T12:05:29.302Z,13.75
2023-04-07T12:06:29.326Z,13.81
2023-04-07T12:07:29.357Z,13.95
2023-04-07T12:08:29.375Z,14.04
2023-04-07T12:09:29.474Z,14.02
2023-04-07T12:10:29.425Z,14.18
2023-04-07T12:11:29.457Z,14.24
2023-04-07T12:12:29.474Z,14.21
2023-04-07T12:13:29.500Z,14.22
2023-04-07T12:14:29.538Z,14.15
2023-04-07T12:15:29.551Z,14.29
2023-04-07T12:16:29.650Z,14.24
2023-04-07T12:17:29.633Z,13.96
2023-04-07T12:18:29.627Z,14.07
2023-04-07T12:19:29.674Z,14.07
2023-04-07T12:20:29.675Z,14.17
2023-04-07T12:21:29.700Z,14.15
2023-04-07T12:22:29.725Z,14.35
2023-04-07T12:23:29.763Z,14.45
2023-04-07T12:24:29.775Z,14.46
2023-04-07T12:25:29.799Z,14.42
2023-04-07T12:26:29.825Z,14.52
2023-04-07T12:27:42.183Z,14.47
2023-04-07T12:28:29.874Z,14.52
2023-04-07T12:29:29.902Z,14.65
2023-04-07T12:30:29.928Z,14.62
2023-04-07T12:31:29.974Z,14.69
2023-04-07T12:32:29.994Z,14.70
2023-04-07T12:33:30.001Z,14.81
2023-04-07T12:34:30.025Z,14.98
2023-04-07T12:35:30.091Z,15.01
2023-04-07T12:36:30.081Z,15.09
2023-04-07T12:37:30.102Z,15.21
2023-04-07T12:38:30.128Z,15.34
2023-04-07T12:39:30.163Z,15.34
2023-04-07T12:40:30.186Z,15.35
2023-04-07T12:41:30.210Z,15.34
2023-04-07T12:42:30.241Z,15.35
2023-04-07T12:43:30.258Z,15.36
2023-04-07T12:44:30.284Z,15.36
2023-04-07T12:45:30.350Z,15.38
2023-04-07T12:46:30.348Z,15.51
2023-04-07T12:47:30.377Z,15.46
2023-04-07T12:48:30.390Z,15.47
2023-04-07T12:49:30.411Z,15.47
2023-04-07T12:50:30.442Z,15.54
2023-04-07T12:51:30.471Z,15.60
2023-04-07T12:52:30.505Z,15.57
2023-04-07T12:53:30.517Z,15.60
2023-04-07T12:54:30.540Z,15.60
2023-04-07T12:55:30.571Z,15.57
2023-04-07T12:56:30.622Z,15.53
2023-04-07T12:57:37.797Z,15.43
2023-04-07T12:59:35.122Z,15.44
2023-04-07T13:00:34.648Z,15.41
2023-04-07T13:02:38.760Z,15.38
2023-04-07T13:03:38.846Z,15.49
2023-04-07T13:05:43.198Z,15.25
2023-04-07T13:06:42.713Z,15.21
2023-04-07T13:08:35.649Z,14.94
2023-04-07T13:09:35.664Z,14.95
2023-04-07T13:11:40.179Z,14.84
2023-04-07T13:12:39.720Z,14.68
2023-04-07T13:14:56.869Z,14.70
2023-04-07T13:15:43.720Z,14.61